HAZ3222 ZSWZ-RCTP
Flight info
| Callsign | HAZ3222 |
|---|---|
| Flight time | 1h 0m |
| Altitude | 22600 |
| Route | OKATO5X OKATO R596 SULEM/N0439F220 R596 BERBA B591 BAKER BAKER1A |
| Aircraft | A359/H-SDE2E3GHIJ3J4J5LM1ORWXY/LB1D1 |
Departure
| Time | 2026-05-05 09:13 |
|---|---|
| Airport | Wenzhou Longwan International Airport (ZSWZ) |
Arrival
| Time | 2026-05-05 10:13 |
|---|---|
| Airport | Taiwan Taoyuan International Airport (RCTP) |
| Time | Latitude | Longitude | Altitude | Speed | Heading |
|---|---|---|---|---|---|
| 2026-05-05 09:01 | 27.90847 | 120.84717 | 25 ft | 0 kts | 339° |
| 2026-05-05 09:05 | 27.90841 | 120.84719 | 22 ft | 2 kts | 340° |
| 2026-05-05 09:06 | 27.90826 | 120.84726 | 26 ft | 2 kts | 340° |
| 2026-05-05 09:06 | 27.90811 | 120.84732 | 23 ft | 2 kts | 341° |
| 2026-05-05 09:06 | 27.90795 | 120.84738 | 24 ft | 2 kts | 342° |
| 2026-05-05 09:06 | 27.90779 | 120.84743 | 25 ft | 2 kts | 344° |
| 2026-05-05 09:07 | 27.90763 | 120.84748 | 23 ft | 2 kts | 347° |
| 2026-05-05 09:07 | 27.90747 | 120.84751 | 23 ft | 2 kts | 354° |
| 2026-05-05 09:07 | 27.90731 | 120.84751 | 25 ft | 2 kts | 17° |
| 2026-05-05 09:07 | 27.90721 | 120.84746 | 24 ft | 0 kts | 31° |
| 2026-05-05 09:08 | 27.90725 | 120.84750 | 24 ft | 3 kts | 39° |
| 2026-05-05 09:08 | 27.90733 | 120.84793 | 21 ft | 9 kts | 88° |
| 2026-05-05 09:09 | 27.90778 | 120.84869 | 25 ft | 15 kts | 36° |
| 2026-05-05 09:09 | 27.90889 | 120.84937 | 23 ft | 21 kts | 27° |
| 2026-05-05 09:09 | 27.91023 | 120.85021 | 23 ft | 23 kts | 28° |
| 2026-05-05 09:09 | 27.91167 | 120.85104 | 25 ft | 24 kts | 28° |
| 2026-05-05 09:10 | 27.91318 | 120.85198 | 24 ft | 25 kts | 28° |
| 2026-05-05 09:10 | 27.91478 | 120.85295 | 25 ft | 27 kts | 28° |
| 2026-05-05 09:10 | 27.91645 | 120.85397 | 24 ft | 28 kts | 28° |
| 2026-05-05 09:10 | 27.91820 | 120.85502 | 23 ft | 29 kts | 28° |
| 2026-05-05 09:11 | 27.91999 | 120.85610 | 23 ft | 29 kts | 28° |
| 2026-05-05 09:11 | 27.92166 | 120.85711 | 22 ft | 26 kts | 28° |
| 2026-05-05 09:11 | 27.92205 | 120.85784 | 24 ft | 3 kts | 110° |
| 2026-05-05 09:11 | 27.92182 | 120.85834 | 23 ft | 11 kts | 117° |
| 2026-05-05 09:12 | 27.92139 | 120.85925 | 24 ft | 14 kts | 123° |
| 2026-05-05 09:12 | 27.92055 | 120.85945 | 24 ft | 14 kts | 206° |
| 2026-05-05 09:12 | 27.91893 | 120.85849 | 26 ft | 57 kts | 208° |
| 2026-05-05 09:12 | 27.91330 | 120.85509 | 25 ft | 124 kts | 208° |
| 2026-05-05 09:13 | 27.90402 | 120.84943 | 109 ft | 173 kts | 207° |
| 2026-05-05 09:13 | 27.89292 | 120.84258 | 580 ft | 190 kts | 207° |
| 2026-05-05 09:13 | 27.88078 | 120.83515 | 1257 ft | 202 kts | 205° |
| 2026-05-05 09:13 | 27.86824 | 120.82765 | 2100 ft | 206 kts | 205° |
| 2026-05-05 09:14 | 27.85564 | 120.82016 | 2879 ft | 210 kts | 205° |
| 2026-05-05 09:14 | 27.84267 | 120.81242 | 3666 ft | 212 kts | 206° |
| 2026-05-05 09:14 | 27.82954 | 120.80458 | 4424 ft | 215 kts | 206° |
| 2026-05-05 09:14 | 27.81634 | 120.79663 | 5228 ft | 215 kts | 207° |
| 2026-05-05 09:15 | 27.80263 | 120.78978 | 5990 ft | 218 kts | 196° |
| 2026-05-05 09:15 | 27.78739 | 120.78946 | 6653 ft | 226 kts | 166° |
| 2026-05-05 09:15 | 27.77380 | 120.79865 | 7314 ft | 235 kts | 134° |
| 2026-05-05 09:15 | 27.76562 | 120.81486 | 8033 ft | 243 kts | 112° |
| 2026-05-05 09:16 | 27.75988 | 120.83279 | 8757 ft | 249 kts | 111° |
| 2026-05-05 09:16 | 27.75395 | 120.85164 | 9505 ft | 254 kts | 111° |
| 2026-05-05 09:16 | 27.74793 | 120.87035 | 10204 ft | 260 kts | 112° |
| 2026-05-05 09:16 | 27.74161 | 120.88970 | 10879 ft | 265 kts | 113° |
| 2026-05-05 09:17 | 27.73512 | 120.90941 | 11567 ft | 270 kts | 113° |
| 2026-05-05 09:17 | 27.72847 | 120.92949 | 12261 ft | 276 kts | 114° |
| 2026-05-05 09:17 | 27.72168 | 120.94992 | 12963 ft | 281 kts | 114° |
| 2026-05-05 09:17 | 27.71475 | 120.97074 | 13652 ft | 287 kts | 115° |
| 2026-05-05 09:18 | 27.70767 | 120.99199 | 14264 ft | 292 kts | 115° |
| 2026-05-05 09:18 | 27.70045 | 121.01364 | 14892 ft | 297 kts | 115° |
| 2026-05-05 09:18 | 27.69314 | 121.03555 | 15513 ft | 301 kts | 115° |
| 2026-05-05 09:18 | 27.68571 | 121.05782 | 16159 ft | 305 kts | 115° |
| 2026-05-05 09:19 | 27.67828 | 121.08006 | 16732 ft | 310 kts | 115° |
| 2026-05-05 09:19 | 27.67063 | 121.10297 | 17351 ft | 314 kts | 115° |
| 2026-05-05 09:19 | 27.66337 | 121.12650 | 17975 ft | 321 kts | 109° |
| 2026-05-05 09:19 | 27.65839 | 121.15146 | 18429 ft | 334 kts | 104° |
| 2026-05-05 09:20 | 27.65389 | 121.17791 | 18663 ft | 352 kts | 104° |
| 2026-05-05 09:20 | 27.64922 | 121.20562 | 18896 ft | 368 kts | 104° |
| 2026-05-05 09:20 | 27.64430 | 121.23457 | 19127 ft | 384 kts | 104° |
| 2026-05-05 09:20 | 27.63913 | 121.26477 | 19354 ft | 400 kts | 106° |
| 2026-05-05 09:21 | 27.63372 | 121.29616 | 19598 ft | 416 kts | 106° |
| 2026-05-05 09:21 | 27.62815 | 121.32830 | 19841 ft | 430 kts | 106° |
| 2026-05-05 09:21 | 27.62232 | 121.36194 | 20089 ft | 445 kts | 106° |
| 2026-05-05 09:21 | 27.61631 | 121.39666 | 20365 ft | 457 kts | 106° |
| 2026-05-05 09:22 | 27.61018 | 121.43205 | 20797 ft | 464 kts | 106° |
| 2026-05-05 09:22 | 27.60396 | 121.46799 | 21326 ft | 469 kts | 107° |
| 2026-05-05 09:22 | 27.59766 | 121.50421 | 21852 ft | 473 kts | 107° |
| 2026-05-05 09:22 | 27.59129 | 121.54079 | 22336 ft | 478 kts | 107° |
| 2026-05-05 09:23 | 27.58485 | 121.57765 | 22567 ft | 479 kts | 107° |
| 2026-05-05 09:23 | 27.57857 | 121.61427 | 22623 ft | 474 kts | 107° |
| 2026-05-05 09:23 | 27.57241 | 121.65065 | 22608 ft | 472 kts | 107° |
| 2026-05-05 09:23 | 27.56635 | 121.68644 | 22601 ft | 472 kts | 107° |
| 2026-05-05 09:24 | 27.56017 | 121.72279 | 22602 ft | 472 kts | 107° |
| 2026-05-05 09:24 | 27.55399 | 121.75910 | 22600 ft | 472 kts | 107° |
| 2026-05-05 09:24 | 27.54779 | 121.79536 | 22600 ft | 472 kts | 107° |
| 2026-05-05 09:24 | 27.54154 | 121.83168 | 22597 ft | 472 kts | 107° |
| 2026-05-05 09:25 | 27.53528 | 121.86805 | 22602 ft | 473 kts | 107° |
| 2026-05-05 09:25 | 27.52904 | 121.90434 | 22600 ft | 472 kts | 107° |
| 2026-05-05 09:25 | 27.52286 | 121.94019 | 22600 ft | 472 kts | 107° |
| 2026-05-05 09:25 | 27.51660 | 121.97649 | 22603 ft | 472 kts | 107° |
| 2026-05-05 09:26 | 27.51032 | 122.01282 | 22598 ft | 472 kts | 107° |
| 2026-05-05 09:26 | 27.50405 | 122.04906 | 22599 ft | 472 kts | 107° |
| 2026-05-05 09:26 | 27.49775 | 122.08538 | 22587 ft | 472 kts | 107° |
| 2026-05-05 09:26 | 27.49146 | 122.12161 | 22600 ft | 470 kts | 107° |
| 2026-05-05 09:27 | 27.48518 | 122.15776 | 22602 ft | 469 kts | 107° |
| 2026-05-05 09:27 | 27.47891 | 122.19374 | 22604 ft | 469 kts | 107° |
| 2026-05-05 09:27 | 27.47261 | 122.22976 | 22603 ft | 469 kts | 107° |
| 2026-05-05 09:27 | 27.46638 | 122.26529 | 22602 ft | 469 kts | 107° |
| 2026-05-05 09:28 | 27.46008 | 122.30128 | 22597 ft | 469 kts | 107° |
| 2026-05-05 09:28 | 27.45374 | 122.33736 | 22599 ft | 469 kts | 107° |
| 2026-05-05 09:28 | 27.44742 | 122.37335 | 22595 ft | 468 kts | 107° |
| 2026-05-05 09:28 | 27.44150 | 122.40942 | 22594 ft | 470 kts | 102° |
| 2026-05-05 09:29 | 27.43913 | 122.44624 | 22598 ft | 473 kts | 97° |
| 2026-05-05 09:29 | 27.43824 | 122.48321 | 22597 ft | 474 kts | 95° |
| 2026-05-05 09:29 | 27.43804 | 122.52041 | 22598 ft | 475 kts | 94° |
| 2026-05-05 09:29 | 27.43815 | 122.55705 | 22599 ft | 475 kts | 94° |
| 2026-05-05 09:30 | 27.43834 | 122.59415 | 22604 ft | 475 kts | 94° |
| 2026-05-05 09:30 | 27.43848 | 122.63135 | 22586 ft | 475 kts | 94° |
| 2026-05-05 09:30 | 27.43854 | 122.66853 | 22599 ft | 476 kts | 94° |
| 2026-05-05 09:30 | 27.43852 | 122.70574 | 22599 ft | 476 kts | 94° |
| 2026-05-05 09:31 | 27.43844 | 122.74311 | 22605 ft | 477 kts | 94° |
| 2026-05-05 09:31 | 27.43696 | 122.78022 | 22604 ft | 471 kts | 103° |
| 2026-05-05 09:31 | 27.42876 | 122.81528 | 22604 ft | 457 kts | 120° |
| 2026-05-05 09:31 | 27.41286 | 122.84536 | 22602 ft | 438 kts | 139° |
| 2026-05-05 09:32 | 27.39123 | 122.86755 | 22604 ft | 418 kts | 156° |
| 2026-05-05 09:32 | 27.36601 | 122.88254 | 22599 ft | 406 kts | 166° |
| 2026-05-05 09:32 | 27.33997 | 122.89452 | 22595 ft | 403 kts | 169° |
| 2026-05-05 09:32 | 27.31370 | 122.90519 | 22608 ft | 400 kts | 171° |
| 2026-05-05 09:33 | 27.28742 | 122.91538 | 22593 ft | 399 kts | 171° |
| 2026-05-05 09:33 | 27.26116 | 122.92553 | 22594 ft | 399 kts | 171° |
| 2026-05-05 09:33 | 27.23491 | 122.93585 | 22570 ft | 400 kts | 170° |
| 2026-05-05 09:33 | 27.20864 | 122.94639 | 22592 ft | 402 kts | 170° |
| 2026-05-05 09:34 | 27.18239 | 122.95710 | 22600 ft | 402 kts | 170° |
| 2026-05-05 09:34 | 27.15645 | 122.96773 | 22600 ft | 402 kts | 169° |
| 2026-05-05 09:34 | 27.13010 | 122.97816 | 22597 ft | 398 kts | 173° |
| 2026-05-05 09:34 | 27.10341 | 122.98416 | 22595 ft | 385 kts | 184° |
| 2026-05-05 09:35 | 27.07718 | 122.98352 | 22596 ft | 371 kts | 197° |
| 2026-05-05 09:35 | 27.03089 | 122.96313 | 22594 ft | 353 kts | 217° |
| 2026-05-05 09:35 | 27.01037 | 122.94810 | 22595 ft | 352 kts | 219° |
| 2026-05-05 09:36 | 26.99042 | 122.93220 | 22594 ft | 352 kts | 220° |
| 2026-05-05 09:36 | 26.97069 | 122.91597 | 22595 ft | 351 kts | 221° |
| 2026-05-05 09:36 | 26.95129 | 122.89998 | 22595 ft | 351 kts | 220° |
| 2026-05-05 09:36 | 26.93153 | 122.88383 | 22609 ft | 351 kts | 220° |
| 2026-05-05 09:37 | 26.91178 | 122.86790 | 22599 ft | 349 kts | 220° |
| 2026-05-05 09:37 | 26.89204 | 122.85212 | 22592 ft | 349 kts | 220° |
| 2026-05-05 09:37 | 26.87226 | 122.83638 | 22591 ft | 349 kts | 220° |
| 2026-05-05 09:37 | 26.85244 | 122.82067 | 22595 ft | 349 kts | 220° |
| 2026-05-05 09:38 | 26.83264 | 122.80499 | 22589 ft | 349 kts | 220° |
| 2026-05-05 09:38 | 26.81281 | 122.78929 | 22591 ft | 349 kts | 220° |
| 2026-05-05 09:38 | 26.79301 | 122.77362 | 22590 ft | 349 kts | 220° |
| 2026-05-05 09:38 | 26.77346 | 122.75816 | 22569 ft | 349 kts | 220° |
| 2026-05-05 09:39 | 26.75357 | 122.74242 | 22588 ft | 351 kts | 220° |
| 2026-05-05 09:39 | 26.73359 | 122.72660 | 22591 ft | 352 kts | 220° |
| 2026-05-05 09:39 | 26.71353 | 122.71074 | 22591 ft | 353 kts | 220° |
| 2026-05-05 09:39 | 26.69349 | 122.69491 | 22591 ft | 353 kts | 220° |
| 2026-05-05 09:40 | 26.67343 | 122.67909 | 22592 ft | 353 kts | 220° |
| 2026-05-05 09:40 | 26.65337 | 122.66328 | 22592 ft | 353 kts | 220° |
| 2026-05-05 09:40 | 26.63331 | 122.64744 | 22591 ft | 353 kts | 220° |
| 2026-05-05 09:40 | 26.61328 | 122.63161 | 22593 ft | 353 kts | 220° |
| 2026-05-05 09:41 | 26.59322 | 122.61578 | 22607 ft | 353 kts | 220° |
| 2026-05-05 09:41 | 26.57349 | 122.60025 | 22595 ft | 351 kts | 220° |
| 2026-05-05 09:41 | 26.55357 | 122.58455 | 22572 ft | 351 kts | 220° |
| 2026-05-05 09:41 | 26.53355 | 122.56875 | 22586 ft | 354 kts | 220° |
| 2026-05-05 09:42 | 26.51342 | 122.55286 | 22591 ft | 355 kts | 220° |
| 2026-05-05 09:42 | 26.49325 | 122.53696 | 22588 ft | 355 kts | 220° |
| 2026-05-05 09:42 | 26.47305 | 122.52106 | 22589 ft | 355 kts | 220° |
| 2026-05-05 09:42 | 26.45284 | 122.50517 | 22588 ft | 355 kts | 220° |
| 2026-05-05 09:43 | 26.43262 | 122.48927 | 22585 ft | 355 kts | 220° |
| 2026-05-05 09:43 | 26.41238 | 122.47337 | 22583 ft | 355 kts | 220° |
| 2026-05-05 09:43 | 26.39243 | 122.45770 | 22584 ft | 356 kts | 220° |
| 2026-05-05 09:43 | 26.37223 | 122.44183 | 22585 ft | 356 kts | 220° |
| 2026-05-05 09:44 | 26.35199 | 122.42595 | 22584 ft | 356 kts | 220° |
| 2026-05-05 09:44 | 26.33175 | 122.41005 | 22574 ft | 357 kts | 219° |
| 2026-05-05 09:44 | 26.31141 | 122.39409 | 22584 ft | 358 kts | 219° |
| 2026-05-05 09:44 | 26.29100 | 122.37810 | 22583 ft | 359 kts | 219° |
| 2026-05-05 09:45 | 26.27057 | 122.36210 | 22581 ft | 359 kts | 219° |
| 2026-05-05 09:45 | 26.25013 | 122.34610 | 22603 ft | 359 kts | 219° |
| 2026-05-05 09:45 | 26.22998 | 122.33045 | 22578 ft | 357 kts | 220° |
| 2026-05-05 09:45 | 26.20971 | 122.31463 | 22578 ft | 356 kts | 220° |
| 2026-05-05 09:46 | 26.18944 | 122.29875 | 22579 ft | 356 kts | 220° |
| 2026-05-05 09:46 | 26.16925 | 122.28292 | 22579 ft | 356 kts | 220° |
| 2026-05-05 09:46 | 26.14901 | 122.26706 | 22579 ft | 356 kts | 220° |
| 2026-05-05 09:46 | 26.12876 | 122.25124 | 22572 ft | 356 kts | 220° |
| 2026-05-05 09:47 | 26.10838 | 122.23550 | 22575 ft | 358 kts | 218° |
| 2026-05-05 09:47 | 26.08786 | 122.21978 | 22578 ft | 359 kts | 218° |
| 2026-05-05 09:47 | 26.06721 | 122.20402 | 22575 ft | 360 kts | 218° |
| 2026-05-05 09:47 | 26.04683 | 122.18847 | 22576 ft | 360 kts | 218° |
| 2026-05-05 09:48 | 26.02621 | 122.17272 | 22572 ft | 360 kts | 218° |
| 2026-05-05 09:48 | 26.00555 | 122.15694 | 22573 ft | 360 kts | 218° |
| 2026-05-05 09:48 | 25.98490 | 122.14116 | 22572 ft | 360 kts | 218° |
| 2026-05-05 09:48 | 25.96428 | 122.12541 | 22574 ft | 360 kts | 218° |
| 2026-05-05 09:49 | 25.94364 | 122.10963 | 22572 ft | 360 kts | 218° |
| 2026-05-05 09:49 | 25.92301 | 122.09387 | 22573 ft | 360 kts | 218° |
| 2026-05-05 09:49 | 25.90235 | 122.07808 | 22556 ft | 360 kts | 217° |
| 2026-05-05 09:49 | 25.88162 | 122.06232 | 22572 ft | 362 kts | 218° |
| 2026-05-05 09:50 | 25.86084 | 122.04654 | 22568 ft | 361 kts | 218° |
| 2026-05-05 09:50 | 25.84045 | 122.03099 | 22571 ft | 361 kts | 218° |
| 2026-05-05 09:50 | 25.81977 | 122.01519 | 22569 ft | 361 kts | 218° |
| 2026-05-05 09:50 | 25.79910 | 121.99941 | 22568 ft | 361 kts | 218° |
| 2026-05-05 09:51 | 25.77846 | 121.98366 | 22570 ft | 361 kts | 218° |
| 2026-05-05 09:51 | 25.75776 | 121.96789 | 22562 ft | 361 kts | 218° |
| 2026-05-05 09:51 | 25.73709 | 121.95214 | 22563 ft | 361 kts | 218° |
| 2026-05-05 09:51 | 25.71638 | 121.93641 | 22560 ft | 361 kts | 218° |
| 2026-05-05 09:52 | 25.69602 | 121.92079 | 22560 ft | 360 kts | 219° |
| 2026-05-05 09:52 | 25.67544 | 121.90487 | 22549 ft | 363 kts | 217° |
| 2026-05-05 09:52 | 25.65503 | 121.88810 | 22558 ft | 368 kts | 221° |
| 2026-05-05 09:52 | 25.63757 | 121.86737 | 22559 ft | 369 kts | 234° |
| 2026-05-05 09:53 | 25.62398 | 121.84321 | 22553 ft | 370 kts | 239° |
| 2026-05-05 09:53 | 25.61132 | 121.81828 | 22555 ft | 371 kts | 239° |
| 2026-05-05 09:53 | 25.59869 | 121.79336 | 22557 ft | 371 kts | 240° |
| 2026-05-05 09:53 | 25.58610 | 121.76864 | 22553 ft | 366 kts | 240° |
| 2026-05-05 09:54 | 25.57363 | 121.74422 | 22554 ft | 363 kts | 240° |
| 2026-05-05 09:54 | 25.56137 | 121.72030 | 22546 ft | 362 kts | 240° |
| 2026-05-05 09:54 | 25.54894 | 121.69607 | 22546 ft | 362 kts | 240° |
| 2026-05-05 09:54 | 25.53651 | 121.67187 | 22546 ft | 362 kts | 240° |
| 2026-05-05 09:55 | 25.52411 | 121.64775 | 22545 ft | 362 kts | 240° |
| 2026-05-05 09:55 | 25.51161 | 121.62345 | 22528 ft | 367 kts | 240° |
| 2026-05-05 09:55 | 25.49866 | 121.59831 | 22430 ft | 384 kts | 240° |
| 2026-05-05 09:55 | 25.48441 | 121.57323 | 22290 ft | 381 kts | 233° |
| 2026-05-05 09:56 | 25.46800 | 121.55102 | 22232 ft | 365 kts | 230° |
| 2026-05-05 09:56 | 25.45135 | 121.52969 | 21807 ft | 370 kts | 229° |
| 2026-05-05 09:56 | 25.43469 | 121.50845 | 21194 ft | 370 kts | 230° |
| 2026-05-05 09:56 | 25.41792 | 121.48701 | 20611 ft | 368 kts | 230° |
| 2026-05-05 09:57 | 25.40122 | 121.46564 | 20051 ft | 366 kts | 230° |
| 2026-05-05 09:57 | 25.38455 | 121.44438 | 19477 ft | 365 kts | 230° |
| 2026-05-05 09:57 | 25.36792 | 121.42311 | 18900 ft | 365 kts | 230° |
| 2026-05-05 09:57 | 25.35134 | 121.40191 | 18329 ft | 365 kts | 230° |
| 2026-05-05 09:58 | 25.33476 | 121.38074 | 17678 ft | 364 kts | 230° |
| 2026-05-05 09:58 | 25.31822 | 121.35963 | 17090 ft | 362 kts | 230° |
| 2026-05-05 09:58 | 25.30183 | 121.33872 | 16501 ft | 359 kts | 230° |
| 2026-05-05 09:58 | 25.28573 | 121.31820 | 15943 ft | 357 kts | 230° |
| 2026-05-05 09:59 | 25.26946 | 121.29746 | 15359 ft | 356 kts | 230° |
| 2026-05-05 09:59 | 25.25324 | 121.27679 | 14763 ft | 356 kts | 230° |
| 2026-05-05 09:59 | 25.23705 | 121.25618 | 14180 ft | 355 kts | 230° |
| 2026-05-05 09:59 | 25.22086 | 121.23558 | 13595 ft | 355 kts | 231° |
| 2026-05-05 10:00 | 25.20475 | 121.21509 | 12965 ft | 353 kts | 231° |
| 2026-05-05 10:00 | 25.18876 | 121.19475 | 12368 ft | 349 kts | 231° |
| 2026-05-05 10:00 | 25.17313 | 121.17487 | 11819 ft | 345 kts | 231° |
| 2026-05-05 10:00 | 25.15747 | 121.15497 | 11236 ft | 342 kts | 231° |
| 2026-05-05 10:01 | 25.14212 | 121.13547 | 11011 ft | 329 kts | 231° |
| 2026-05-05 10:01 | 25.12747 | 121.11690 | 10907 ft | 312 kts | 231° |
| 2026-05-05 10:01 | 25.11361 | 121.09934 | 10810 ft | 296 kts | 231° |
| 2026-05-05 10:01 | 25.10042 | 121.08267 | 10684 ft | 281 kts | 231° |
| 2026-05-05 10:02 | 25.08789 | 121.06671 | 10576 ft | 268 kts | 231° |
| 2026-05-05 10:02 | 25.07593 | 121.05147 | 10470 ft | 258 kts | 230° |
| 2026-05-05 10:02 | 25.06431 | 121.03669 | 10261 ft | 254 kts | 230° |
| 2026-05-05 10:02 | 25.05269 | 121.02192 | 9899 ft | 256 kts | 231° |
| 2026-05-05 10:03 | 25.04103 | 121.00710 | 9532 ft | 264 kts | 231° |
| 2026-05-05 10:03 | 25.02881 | 120.99157 | 9189 ft | 269 kts | 231° |
| 2026-05-05 10:03 | 25.01655 | 120.97600 | 8827 ft | 268 kts | 230° |
| 2026-05-05 10:03 | 25.00433 | 120.96053 | 8460 ft | 267 kts | 231° |
| 2026-05-05 10:04 | 24.99213 | 120.94507 | 8099 ft | 267 kts | 231° |
| 2026-05-05 10:04 | 24.98003 | 120.92959 | 7745 ft | 266 kts | 231° |
| 2026-05-05 10:04 | 24.96803 | 120.91444 | 7390 ft | 265 kts | 230° |
| 2026-05-05 10:04 | 24.95588 | 120.89920 | 7039 ft | 265 kts | 231° |
| 2026-05-05 10:05 | 24.94353 | 120.88422 | 6676 ft | 266 kts | 226° |
| 2026-05-05 10:05 | 24.92796 | 120.87317 | 6314 ft | 268 kts | 202° |
| 2026-05-05 10:05 | 24.90938 | 120.87112 | 5946 ft | 274 kts | 174° |
| 2026-05-05 10:05 | 24.89177 | 120.87899 | 5567 ft | 278 kts | 146° |
| 2026-05-05 10:06 | 24.87949 | 120.89527 | 5290 ft | 277 kts | 116° |
| 2026-05-05 10:06 | 24.87556 | 120.91540 | 5167 ft | 265 kts | 89° |
| 2026-05-05 10:06 | 24.87989 | 120.93450 | 5062 ft | 252 kts | 62° |
| 2026-05-05 10:06 | 24.89053 | 120.94906 | 4948 ft | 239 kts | 38° |
| 2026-05-05 10:07 | 24.90234 | 120.96104 | 4845 ft | 231 kts | 47° |
| 2026-05-05 10:07 | 24.91063 | 120.97613 | 4542 ft | 232 kts | 72° |
| 2026-05-05 10:07 | 24.91277 | 120.99355 | 4285 ft | 229 kts | 93° |
| 2026-05-05 10:07 | 24.91433 | 121.01099 | 4004 ft | 228 kts | 72° |
| 2026-05-05 10:08 | 24.92240 | 121.02569 | 3733 ft | 225 kts | 49° |
| 2026-05-05 10:08 | 24.93287 | 121.03848 | 3484 ft | 224 kts | 48° |
| 2026-05-05 10:08 | 24.94317 | 121.05124 | 3301 ft | 221 kts | 49° |
| 2026-05-05 10:08 | 24.95306 | 121.06377 | 3116 ft | 213 kts | 49° |
| 2026-05-05 10:09 | 24.96252 | 121.07596 | 2961 ft | 209 kts | 50° |
| 2026-05-05 10:09 | 24.97164 | 121.08777 | 2964 ft | 197 kts | 49° |
| 2026-05-05 10:09 | 24.98058 | 121.09912 | 2869 ft | 195 kts | 47° |
| 2026-05-05 10:09 | 24.98934 | 121.11027 | 2583 ft | 188 kts | 50° |
| 2026-05-05 10:10 | 24.99769 | 121.12082 | 2330 ft | 178 kts | 49° |
| 2026-05-05 10:10 | 25.00559 | 121.13082 | 2096 ft | 167 kts | 49° |
| 2026-05-05 10:10 | 25.01293 | 121.14012 | 1864 ft | 154 kts | 50° |
| 2026-05-05 10:10 | 25.01975 | 121.14876 | 1686 ft | 145 kts | 50° |
| 2026-05-05 10:11 | 25.02613 | 121.15685 | 1492 ft | 141 kts | 50° |
| 2026-05-05 10:11 | 25.03255 | 121.16497 | 1347 ft | 141 kts | 50° |
| 2026-05-05 10:11 | 25.03898 | 121.17310 | 1149 ft | 140 kts | 49° |
| 2026-05-05 10:11 | 25.04538 | 121.18120 | 967 ft | 140 kts | 50° |
| 2026-05-05 10:12 | 25.05180 | 121.18933 | 786 ft | 140 kts | 51° |
| 2026-05-05 10:12 | 25.05825 | 121.19745 | 580 ft | 140 kts | 50° |
| 2026-05-05 10:12 | 25.06472 | 121.20551 | 376 ft | 140 kts | 52° |
| 2026-05-05 10:12 | 25.07104 | 121.21363 | 179 ft | 140 kts | 51° |
| 2026-05-05 10:13 | 25.07706 | 121.22148 | 106 ft | 122 kts | 51° |
| 2026-05-05 10:13 | 25.08114 | 121.22665 | 106 ft | 72 kts | 60° |
| 2026-05-05 10:13 | 25.08204 | 121.23016 | 107 ft | 9 kts | 79° |
| 2026-05-05 10:13 | 25.08211 | 121.23057 | 104 ft | 5 kts | 85° |
| 2026-05-05 10:14 | 25.08202 | 121.23105 | 106 ft | 6 kts | 117° |
| 2026-05-05 10:14 | 25.08174 | 121.23138 | 105 ft | 6 kts | 143° |
| 2026-05-05 10:14 | 25.08134 | 121.23155 | 104 ft | 7 kts | 161° |
| 2026-05-05 10:14 | 25.08091 | 121.23182 | 106 ft | 8 kts | 142° |
| 2026-05-05 10:15 | 25.08047 | 121.23223 | 105 ft | 9 kts | 139° |
| 2026-05-05 10:15 | 25.08044 | 121.23225 | 105 ft | 0 kts | 139° |